createdAt,value
2023-01-01T00:00:43.639Z,5.43
2023-01-01T00:03:10.553Z,5.50
2023-01-01T00:05:40.762Z,5.50
2023-01-01T00:08:07.704Z,5.54
2023-01-01T00:10:34.710Z,5.47
2023-01-01T00:13:01.616Z,5.53
2023-01-01T00:15:28.876Z,5.61
2023-01-01T00:17:57.796Z,5.60
2023-01-01T00:20:27.559Z,5.65
2023-01-01T00:22:57.140Z,5.57
2023-01-01T00:25:24.783Z,5.65
2023-01-01T00:27:52.058Z,5.53
2023-01-01T00:30:19.602Z,5.49
2023-01-01T00:32:54.336Z,5.45
2023-01-01T00:35:22.285Z,5.44
2023-01-01T00:37:49.391Z,5.43
2023-01-01T00:40:16.357Z,5.40
2023-01-01T00:42:43.221Z,5.42
2023-01-01T00:45:14.209Z,5.32
2023-01-01T00:47:44.097Z,5.35
2023-01-01T00:50:11.005Z,5.38
2023-01-01T00:52:37.887Z,5.33
2023-01-01T00:55:05.053Z,5.32
2023-01-01T00:57:32.006Z,5.25
2023-01-01T00:59:59.055Z,5.31
2023-01-01T01:02:26.068Z,5.09
2023-01-01T01:04:53.075Z,5.04
2023-01-01T01:07:19.878Z,5.11
2023-01-01T01:09:46.721Z,5.10
2023-01-01T01:12:17.925Z,5.13
2023-01-01T01:14:46.867Z,5.17
2023-01-01T01:17:13.757Z,5.17
2023-01-01T01:19:40.709Z,5.21
2023-01-01T01:22:07.635Z,5.19
2023-01-01T01:24:34.594Z,5.29
2023-01-01T01:27:01.639Z,5.30
2023-01-01T01:29:28.512Z,5.30
2023-01-01T01:31:56.150Z,5.34
2023-01-01T01:34:27.767Z,5.38
2023-01-01T01:36:55.721Z,5.45
2023-01-01T01:39:22.880Z,5.38
2023-01-01T01:41:49.888Z,5.34
2023-01-01T01:44:50.456Z,5.19
2023-01-01T01:47:29.583Z,5.26
2023-01-01T01:50:26.209Z,5.25
2023-01-01T01:53:12.487Z,5.24
2023-01-01T01:55:43.924Z,5.16
2023-01-01T01:58:13.853Z,5.15
2023-01-01T02:00:40.800Z,5.15
2023-01-01T02:03:20.217Z,5.06
2023-01-01T02:05:48.857Z,5.09
2023-01-01T02:08:16.815Z,4.93
2023-01-01T02:10:43.701Z,4.96
2023-01-01T02:13:11.497Z,4.89
2023-01-01T02:15:50.868Z,4.92
2023-01-01T02:18:25.518Z,4.86
2023-01-01T02:21:00.481Z,4.70
2023-01-01T02:23:55.443Z,4.70
2023-01-01T02:26:38.367Z,4.61
2023-01-01T02:29:20.056Z,4.65
2023-01-01T02:32:06.713Z,4.54
2023-01-01T02:34:43.366Z,4.51
2023-01-01T02:37:14.267Z,4.53
2023-01-01T02:39:55.684Z,4.45
2023-01-01T02:42:27.984Z,4.42
2023-01-01T02:44:57.761Z,4.35
2023-01-01T02:47:24.616Z,4.42
2023-01-01T02:50:06.107Z,4.60
2023-01-01T02:53:05.225Z,4.58
2023-01-01T02:55:32.634Z,4.58
2023-01-01T02:58:30.160Z,4.55
2023-01-01T03:01:08.603Z,4.50
2023-01-01T03:03:49.353Z,4.50
2023-01-01T03:06:27.973Z,4.47
2023-01-01T03:26:27.564Z,3.65
2023-01-01T03:28:58.088Z,3.71
2023-01-01T03:31:26.852Z,3.82
2023-01-01T03:34:07.033Z,3.95
2023-01-01T03:36:44.813Z,4.04
2023-01-01T03:39:16.636Z,4.10
2023-01-01T03:42:08.193Z,4.03
2023-01-01T03:45:04.185Z,4.02
2023-01-01T03:47:31.562Z,3.98
2023-01-01T03:49:59.957Z,4.17
2023-01-01T03:52:43.201Z,4.15
2023-01-01T03:55:20.631Z,4.27
2023-01-01T03:58:26.580Z,4.20
2023-01-01T04:01:04.130Z,4.22
2023-01-01T04:03:33.581Z,4.27
2023-01-01T04:06:02.827Z,4.24
2023-01-01T04:08:32.191Z,4.42
2023-01-01T04:11:23.695Z,4.55
2023-01-01T04:13:50.591Z,4.49
2023-01-01T04:16:17.493Z,4.48
2023-01-01T04:18:44.423Z,4.41
2023-01-01T04:21:12.800Z,4.45
2023-01-01T04:23:39.649Z,4.33
2023-01-01T04:26:06.443Z,4.36
2023-01-01T04:28:33.269Z,4.49
2023-01-01T04:31:02.944Z,4.44
2023-01-01T04:33:29.809Z,4.55
2023-01-01T04:35:56.706Z,4.46
2023-01-01T04:38:23.499Z,4.39
2023-01-01T04:41:01.098Z,4.47
2023-01-01T04:43:28.499Z,4.43
2023-01-01T04:46:00.735Z,4.44
2023-01-01T04:48:28.562Z,4.43
2023-01-01T04:51:07.072Z,4.55
2023-01-01T04:53:35.399Z,4.53
2023-01-01T04:56:11.000Z,4.36
2023-01-01T04:58:39.856Z,4.34
2023-01-01T05:01:07.650Z,4.26
2023-01-01T05:03:35.210Z,4.00
2023-01-01T05:06:13.477Z,3.83
2023-01-01T05:08:42.604Z,3.93
2023-01-01T05:11:18.226Z,4.03
2023-01-01T05:13:48.173Z,3.92
2023-01-01T05:16:17.967Z,3.99
2023-01-01T05:18:45.627Z,3.88
2023-01-01T05:21:17.799Z,3.93
2023-01-01T05:23:45.079Z,3.98
2023-01-01T05:26:23.653Z,4.06
2023-01-01T05:28:51.267Z,4.07
2023-01-01T05:31:20.632Z,4.13
2023-01-01T05:33:47.996Z,4.16
2023-01-01T05:36:17.713Z,4.15
2023-01-01T05:38:44.852Z,4.23
2023-01-01T05:41:14.442Z,4.26
2023-01-01T05:43:41.567Z,4.42
2023-01-01T05:46:13.127Z,4.55
2023-01-01T05:48:40.310Z,4.85
2023-01-01T05:51:10.265Z,5.14
2023-01-01T05:53:37.794Z,5.54
2023-01-01T05:56:05.584Z,6.02
2023-01-01T05:58:34.844Z,6.50
2023-01-01T06:01:08.037Z,6.56
2023-01-01T06:03:35.005Z,7.04
2023-01-01T06:06:08.141Z,7.24
2023-01-01T06:08:35.179Z,7.37
2023-01-01T06:11:03.790Z,7.31
2023-01-01T06:13:31.692Z,7.56
2023-01-01T06:16:00.197Z,8.17
2023-01-01T06:18:30.944Z,8.76
2023-01-01T06:21:25.060Z,9.36
2023-01-01T06:23:52.495Z,9.50
2023-01-01T06:26:25.097Z,10.45
2023-01-01T06:28:52.393Z,11.43
2023-01-01T06:31:21.339Z,11.23
2023-01-01T06:33:49.512Z,11.59
2023-01-01T06:36:18.341Z,13.23
2023-01-01T06:38:48.040Z,13.07
2023-01-01T06:41:17.652Z,12.91
2023-01-01T06:43:45.449Z,13.53
2023-01-01T06:46:18.203Z,14.63
2023-01-01T06:48:46.240Z,14.39
2023-01-01T06:51:15.995Z,14.56
2023-01-01T06:53:42.980Z,14.80
2023-01-01T06:56:10.432Z,16.22
2023-01-01T06:58:37.440Z,16.07
2023-01-01T07:01:08.637Z,16.53
2023-01-01T07:03:37.073Z,17.23
2023-01-01T07:06:04.805Z,17.85
2023-01-01T07:08:31.894Z,17.90
2023-01-01T07:10:58.921Z,18.71
2023-01-01T07:13:26.560Z,17.68
2023-01-01T07:15:54.118Z,18.19
2023-01-01T07:18:22.100Z,18.21
2023-01-01T07:20:55.585Z,19.10
2023-01-01T07:23:23.128Z,20.05
2023-01-01T07:25:51.239Z,19.85
2023-01-01T07:28:18.168Z,19.33
2023-01-01T07:30:46.656Z,19.30
2023-01-01T07:33:15.894Z,18.56
2023-01-01T07:35:44.932Z,18.45
2023-01-01T07:38:12.642Z,18.83
2023-01-01T07:40:40.392Z,18.81
2023-01-01T07:43:07.841Z,18.45
2023-01-01T07:45:35.194Z,18.32
2023-01-01T07:48:02.939Z,19.35
2023-01-01T07:50:32.991Z,19.60
2023-01-01T07:52:59.921Z,21.63
2023-01-01T07:55:27.202Z,22.58
2023-01-01T07:57:54.042Z,23.41
2023-01-01T08:00:21.913Z,24.12
2023-01-01T08:02:49.199Z,24.06
2023-01-01T08:05:19.892Z,25.31
2023-01-01T08:07:51.452Z,24.03
2023-01-01T08:10:22.816Z,24.64
2023-01-01T08:12:49.706Z,22.75
2023-01-01T08:15:16.934Z,24.55
2023-01-01T08:17:46.737Z,23.41
2023-01-01T08:20:14.577Z,23.89
2023-01-01T08:22:41.588Z,24.26
2023-01-01T08:25:08.968Z,23.19
2023-01-01T08:27:35.844Z,21.36
2023-01-01T08:30:02.796Z,21.77
2023-01-01T08:32:29.605Z,22.44
2023-01-01T08:34:56.437Z,23.11
2023-01-01T08:37:24.072Z,23.66
2023-01-01T08:39:54.349Z,23.21
2023-01-01T08:42:21.257Z,22.60
2023-01-01T08:44:48.249Z,21.19
2023-01-01T08:47:24.561Z,22.12
2023-01-01T08:49:53.088Z,22.02
2023-01-01T08:52:20.608Z,21.90
2023-01-01T08:54:47.496Z,22.39
2023-01-01T08:57:14.439Z,22.69
2023-01-01T08:59:41.263Z,21.64
2023-01-01T09:02:12.893Z,21.51
2023-01-01T09:04:40.013Z,23.14
2023-01-01T09:07:06.908Z,23.55
2023-01-01T09:09:33.778Z,22.64
2023-01-01T09:12:06.166Z,22.23
2023-01-01T09:14:34.485Z,21.84
2023-01-01T09:17:01.745Z,22.46
2023-01-01T09:19:28.707Z,21.72
2023-01-01T09:21:55.858Z,22.65
2023-01-01T09:24:22.884Z,22.87
2023-01-01T09:26:50.293Z,24.94
2023-01-01T09:29:18.831Z,25.52
2023-01-01T09:31:45.952Z,25.08
2023-01-01T09:34:13.005Z,26.34
2023-01-01T09:36:39.880Z,25.17
2023-01-01T09:39:06.866Z,24.56
2023-01-01T09:41:48.698Z,24.30
2023-01-01T09:44:28.160Z,24.10
2023-01-01T09:47:00.559Z,23.50
2023-01-01T09:49:36.365Z,24.79
2023-01-01T09:52:05.554Z,23.02
2023-01-01T09:54:37.918Z,22.90
2023-01-01T09:57:16.277Z,23.48
2023-01-01T09:59:46.680Z,24.41
2023-01-01T10:02:53.609Z,24.27
2023-01-01T10:05:50.087Z,26.40
2023-01-01T10:08:31.958Z,26.83
2023-01-01T10:11:11.074Z,27.18
2023-01-01T10:13:46.139Z,26.88
2023-01-01T10:16:15.252Z,27.37
2023-01-01T10:18:52.490Z,27.16
2023-01-01T10:21:27.771Z,27.90
2023-01-01T10:24:17.508Z,29.44
2023-01-01T10:26:44.493Z,28.11
2023-01-01T10:29:29.021Z,29.25
2023-01-01T10:31:57.914Z,28.95
2023-01-01T10:34:32.288Z,29.25
2023-01-01T10:37:00.972Z,29.31
2023-01-01T10:39:28.536Z,28.92
2023-01-01T10:41:58.238Z,30.16
2023-01-01T10:44:34.228Z,30.58
2023-01-01T10:47:25.339Z,30.98
2023-01-01T10:49:59.866Z,30.98
2023-01-01T10:52:31.815Z,31.99
2023-01-01T10:55:00.103Z,31.55
2023-01-01T10:57:27.047Z,31.22
2023-01-01T10:59:54.853Z,30.35
2023-01-01T11:02:28.507Z,29.33
2023-01-01T11:05:21.918Z,30.20
2023-01-01T11:07:49.987Z,31.97
2023-01-01T11:10:22.715Z,30.86
2023-01-01T11:13:07.048Z,31.41
2023-01-01T11:15:37.703Z,32.59
2023-01-01T11:18:06.888Z,32.26
2023-01-01T11:20:34.737Z,29.66
2023-01-01T11:23:19.617Z,29.05
2023-01-01T11:26:06.708Z,30.61
2023-01-01T11:28:35.717Z,29.58
2023-01-01T11:31:07.592Z,28.71
2023-01-01T11:33:40.324Z,27.83
2023-01-01T11:36:07.762Z,26.88
2023-01-01T11:38:34.824Z,27.53
2023-01-01T11:41:05.930Z,26.85
2023-01-01T11:43:40.500Z,26.48
2023-01-01T11:46:11.074Z,26.05
2023-01-01T11:48:42.868Z,25.51
2023-01-01T11:51:28.208Z,25.91
2023-01-01T11:54:10.058Z,27.30
2023-01-01T11:56:37.551Z,28.78
2023-01-01T11:59:23.758Z,27.86
2023-01-01T12:02:03.353Z,29.32
2023-01-01T12:04:42.458Z,30.48
2023-01-01T12:07:18.242Z,29.10
2023-01-01T12:10:06.944Z,30.75
2023-01-01T12:12:38.846Z,32.11
2023-01-01T12:15:18.755Z,31.70
2023-01-01T12:18:06.479Z,32.04
2023-01-01T12:20:39.205Z,32.68
2023-01-01T12:23:09.216Z,32.38
2023-01-01T12:25:43.368Z,32.74
2023-01-01T12:28:27.009Z,33.32
2023-01-01T12:31:03.119Z,34.12
2023-01-01T12:33:30.136Z,30.83
2023-01-01T12:36:09.389Z,32.54
2023-01-01T12:38:48.517Z,27.04
2023-01-01T12:41:44.401Z,23.43
2023-01-01T12:44:33.277Z,22.03
2023-01-01T12:47:06.155Z,20.40
2023-01-01T12:49:42.124Z,19.57
2023-01-01T12:52:34.199Z,18.32
2023-01-01T12:55:28.524Z,17.50
2023-01-01T12:58:15.705Z,16.96
2023-01-01T13:00:52.051Z,16.77
2023-01-01T13:03:24.345Z,16.34
2023-01-01T13:05:55.152Z,16.05
2023-01-01T13:08:22.704Z,15.92
2023-01-01T13:10:53.276Z,15.82
2023-01-01T13:13:20.610Z,15.76
2023-01-01T13:15:55.766Z,15.78
2023-01-01T13:18:26.748Z,15.86
2023-01-01T13:20:53.619Z,16.08
2023-01-01T13:23:34.805Z,16.05
2023-01-01T13:26:21.097Z,16.02
2023-01-01T13:29:00.839Z,15.83
2023-01-01T13:31:43.219Z,15.87
2023-01-01T13:34:32.446Z,15.39
2023-01-01T13:37:29.639Z,15.33
2023-01-01T13:40:02.196Z,15.04
2023-01-01T13:42:52.576Z,14.83
2023-01-01T13:48:37.825Z,14.58
2023-01-01T13:51:54.962Z,14.25
2023-01-01T13:54:33.693Z,14.14
2023-01-01T13:57:09.657Z,14.16
2023-01-01T14:00:10.206Z,14.01
2023-01-01T14:02:47.924Z,13.85
2023-01-01T14:05:26.163Z,13.73
2023-01-01T14:07:55.488Z,13.63
2023-01-01T14:10:37.791Z,13.55
2023-01-01T14:13:08.585Z,13.53
2023-01-01T14:15:52.629Z,13.57
2023-01-01T14:18:22.197Z,13.36
2023-01-01T14:20:53.910Z,13.39
2023-01-01T14:23:40.487Z,13.56
2023-01-01T14:26:12.369Z,13.54
2023-01-01T14:28:40.353Z,13.59
2023-01-01T14:31:16.852Z,13.47
2023-01-01T14:33:44.765Z,13.48
2023-01-01T14:36:21.969Z,13.40
2023-01-01T14:38:51.502Z,13.26
2023-01-01T14:41:36.057Z,13.35
2023-01-01T14:44:20.112Z,13.06
2023-01-01T14:46:52.810Z,12.98
2023-01-01T14:49:26.743Z,13.02
2023-01-01T14:52:27.887Z,12.96
2023-01-01T14:54:58.614Z,12.89
2023-01-01T14:57:33.248Z,12.99
2023-01-01T15:00:01.058Z,13.06
2023-01-01T15:02:31.894Z,13.10
2023-01-01T15:05:15.947Z,13.09
2023-01-01T15:07:42.812Z,13.05
2023-01-01T15:10:13.064Z,13.13
2023-01-01T15:28:21.016Z,12.09
2023-01-01T15:30:57.869Z,12.18
2023-01-01T15:33:25.245Z,12.30
2023-01-01T15:35:54.019Z,12.20
2023-01-01T15:38:31.185Z,12.40
2023-01-01T15:40:58.162Z,12.41
2023-01-01T15:43:27.164Z,12.33
2023-01-01T15:46:18.567Z,12.41
2023-01-01T15:48:51.174Z,12.46
2023-01-01T15:51:26.666Z,12.45
2023-01-01T15:54:05.610Z,12.34
2023-01-01T15:56:39.243Z,12.37
2023-01-01T15:59:13.623Z,12.16
2023-01-01T16:01:42.073Z,12.02
2023-01-01T16:04:10.668Z,12.13
2023-01-01T16:06:50.157Z,11.83
2023-01-01T16:09:18.707Z,11.86
2023-01-01T16:11:50.711Z,11.82
2023-01-01T16:14:18.019Z,11.85
2023-01-01T16:16:51.835Z,11.66
2023-01-01T16:19:19.780Z,11.66
2023-01-01T16:21:46.704Z,11.61
2023-01-01T16:24:16.878Z,11.56
2023-01-01T16:26:46.615Z,11.66
2023-01-01T16:29:14.068Z,11.52
2023-01-01T16:31:41.938Z,11.35
2023-01-01T16:34:14.518Z,11.27
2023-01-01T16:36:42.887Z,11.23
2023-01-01T16:39:10.010Z,11.15
2023-01-01T16:41:39.609Z,11.09
2023-01-01T16:44:06.580Z,11.09
2023-01-01T16:46:33.708Z,11.05
2023-01-01T16:49:00.865Z,11.02
2023-01-01T16:51:30.136Z,11.01
2023-01-01T16:53:57.543Z,10.97
2023-01-01T16:56:24.497Z,10.89
2023-01-01T16:58:55.239Z,10.97
2023-01-01T17:01:27.262Z,11.08
2023-01-01T17:03:54.373Z,11.10
2023-01-01T17:06:21.322Z,11.00
2023-01-01T17:08:48.217Z,11.04
2023-01-01T17:11:17.205Z,10.98
2023-01-01T17:13:48.242Z,10.95
2023-01-01T17:16:21.381Z,10.93
2023-01-01T17:21:40.492Z,10.75
2023-01-01T17:24:08.005Z,10.74
2023-01-01T17:26:34.886Z,10.77
2023-01-01T17:29:03.110Z,10.55
2023-01-01T17:31:30.241Z,10.52
2023-01-01T17:33:57.568Z,10.54
2023-01-01T17:36:27.429Z,10.44
2023-01-01T17:38:54.933Z,10.29
2023-01-01T17:41:22.815Z,10.34
2023-01-01T17:43:51.689Z,10.35
2023-01-01T17:46:31.091Z,10.40
2023-01-01T17:48:58.221Z,10.40
2023-01-01T17:51:25.809Z,10.43
2023-01-01T17:53:53.969Z,10.37
2023-01-01T17:56:22.360Z,10.39
2023-01-01T17:58:52.040Z,10.26
2023-01-01T18:01:22.239Z,10.13
2023-01-01T18:03:51.094Z,10.12
2023-01-01T18:06:18.181Z,10.13
2023-01-01T18:08:45.977Z,10.08
2023-01-01T18:11:12.944Z,10.02
2023-01-01T18:13:39.908Z,10.02
2023-01-01T18:16:09.849Z,10.00
2023-01-01T18:18:40.325Z,9.93
2023-01-01T18:21:14.603Z,10.03
2023-01-01T18:23:41.985Z,9.94
2023-01-01T18:26:10.966Z,9.90
2023-01-01T18:28:39.279Z,9.92
2023-01-01T18:31:14.307Z,10.01
2023-01-01T18:33:42.020Z,10.04
2023-01-01T18:36:14.603Z,10.05
2023-01-01T18:38:45.151Z,10.02
2023-01-01T18:41:27.859Z,10.00
2023-01-01T18:43:56.136Z,9.98
2023-01-01T18:46:23.622Z,9.94
2023-01-01T18:48:57.022Z,9.89
2023-01-01T18:51:26.523Z,9.90
2023-01-01T18:53:58.892Z,9.90
2023-01-01T18:56:25.882Z,9.70
2023-01-01T18:58:56.213Z,9.61
2023-01-01T19:01:24.157Z,9.64
2023-01-01T19:04:02.057Z,9.60
2023-01-01T19:06:32.203Z,9.48
2023-01-01T19:09:23.410Z,9.50
2023-01-01T19:11:54.427Z,9.53
2023-01-01T19:14:24.663Z,9.55
2023-01-01T19:16:56.494Z,9.39
2023-01-01T19:19:33.808Z,9.33
2023-01-01T19:22:16.050Z,9.24
2023-01-01T19:24:44.380Z,9.25
2023-01-01T19:27:18.527Z,9.09
2023-01-01T19:29:48.099Z,9.10
2023-01-01T19:32:15.814Z,8.96
2023-01-01T19:34:42.739Z,8.95
2023-01-01T19:37:10.640Z,8.92
2023-01-01T19:39:38.833Z,8.89
2023-01-01T19:42:07.241Z,8.90
2023-01-01T19:44:35.609Z,8.90
2023-01-01T19:47:04.965Z,8.87
2023-01-01T19:49:32.249Z,8.85
2023-01-01T19:51:59.297Z,8.87
2023-01-01T19:54:26.573Z,8.85
2023-01-01T19:56:53.525Z,8.91
2023-01-01T19:59:20.508Z,8.82
2023-01-01T20:02:03.381Z,8.85
2023-01-01T20:04:34.485Z,8.85
2023-01-01T20:07:01.326Z,8.82
2023-01-01T20:09:28.281Z,8.87
2023-01-01T20:11:55.122Z,8.98
2023-01-01T20:14:22.102Z,9.03
2023-01-01T20:16:51.023Z,8.99
2023-01-01T20:19:17.998Z,9.11
2023-01-01T20:22:03.575Z,9.13
2023-01-01T20:24:30.673Z,9.16
2023-01-01T20:26:57.582Z,9.18
2023-01-01T20:29:24.636Z,9.08
2023-01-01T20:31:53.499Z,9.02
2023-01-01T20:34:21.650Z,9.01
2023-01-01T20:37:07.571Z,9.07
2023-01-01T20:39:37.946Z,9.12
2023-01-01T20:42:04.988Z,9.14
2023-01-01T20:44:32.340Z,9.07
2023-01-01T20:46:59.284Z,9.05
2023-01-01T20:49:26.211Z,9.14
2023-01-01T20:51:53.459Z,9.11
2023-01-01T20:54:21.942Z,9.07
2023-01-01T20:56:48.869Z,9.05
2023-01-01T20:59:34.854Z,9.09
2023-01-01T21:02:05.045Z,9.16
2023-01-01T21:04:32.221Z,9.19
2023-01-01T21:06:59.071Z,9.23
2023-01-01T21:09:26.049Z,9.12
2023-01-01T21:11:53.250Z,9.19
2023-01-01T21:14:24.132Z,9.10
2023-01-01T21:16:52.042Z,9.06
2023-01-01T21:19:26.102Z,9.08
2023-01-01T21:21:55.690Z,8.99
2023-01-01T21:24:34.762Z,8.91
2023-01-01T21:27:18.448Z,8.86
2023-01-01T21:29:48.615Z,8.79
2023-01-01T21:32:24.791Z,8.76
2023-01-01T21:34:53.711Z,8.77
2023-01-01T21:37:44.534Z,8.65
2023-01-01T21:40:39.585Z,8.59
2023-01-01T21:43:10.841Z,8.53
2023-01-01T21:45:42.682Z,8.49
2023-01-01T21:49:02.077Z,8.45
2023-01-01T21:51:42.295Z,8.48
2023-01-01T21:54:12.312Z,8.56
2023-01-01T21:56:43.322Z,8.53
2023-01-01T21:59:28.854Z,8.55
2023-01-01T22:02:07.836Z,8.53
2023-01-01T22:04:39.763Z,8.62
2023-01-01T22:10:16.584Z,8.64
2023-01-01T22:12:43.763Z,8.59
2023-01-01T22:15:25.997Z,8.62
2023-01-01T22:18:11.836Z,8.64
2023-01-01T22:20:42.236Z,8.61
2023-01-01T22:23:20.406Z,8.63
2023-01-01T22:25:47.896Z,8.63
2023-01-01T22:28:22.630Z,8.70
2023-01-01T22:30:54.083Z,8.65
2023-01-01T22:33:30.235Z,8.50
2023-01-01T22:35:58.005Z,8.51
2023-01-01T22:38:34.119Z,8.42
2023-01-01T22:41:01.518Z,8.42
2023-01-01T22:43:34.507Z,8.32
2023-01-01T22:46:22.110Z,8.37
2023-01-01T22:48:52.766Z,8.29
2023-01-01T22:51:28.125Z,8.33
2023-01-01T22:53:54.955Z,8.18
2023-01-01T22:56:21.975Z,8.26
2023-01-01T22:58:54.751Z,8.31
2023-01-01T23:01:23.595Z,8.34
2023-01-01T23:03:50.713Z,8.30
2023-01-01T23:06:18.725Z,8.19
2023-01-01T23:08:45.876Z,8.28
2023-01-01T23:11:13.209Z,8.26
2023-01-01T23:13:58.627Z,8.26
2023-01-01T23:16:25.574Z,8.12
2023-01-01T23:18:52.524Z,8.19
2023-01-01T23:21:26.683Z,8.25
2023-01-01T23:23:56.478Z,8.33
2023-01-01T23:26:24.957Z,8.17
2023-01-01T23:28:53.565Z,8.12
2023-01-01T23:31:25.216Z,8.18
2023-01-01T23:33:53.982Z,8.09
2023-01-01T23:36:21.094Z,8.12
2023-01-01T23:38:48.080Z,8.15
2023-01-01T23:41:14.980Z,8.03
2023-01-01T23:43:43.870Z,8.06
2023-01-01T23:46:13.458Z,7.92
2023-01-01T23:48:44.023Z,7.83
2023-01-01T23:51:12.008Z,7.65
2023-01-01T23:53:38.860Z,7.54
2023-01-01T23:56:06.053Z,7.45
2023-01-01T23:58:33.130Z,7.42
